Time;durP1;ratioP1;P1;durP2;ratioP2;P2;SDS_P1;SDS_P2;PMS_P1;PMS_P2;Temp;Humidity;BMP_temperature;BMP_pressure;BME280_temperature;BME280_humidity;BME280_pressure;Samples;Min_cycle;Max_cycle;Signal;HPM_P1;HPM_P2
2023/03/19 00:01:20;;;;;;;2.53;1.70;;;12.10;99.90;;;;;;5071136;28;20181;-72
2023/03/19 00:03:46;;;;;;;2.60;1.80;;;12.10;99.90;;;;;;5070108;28;20174;-71
2023/03/19 00:06:12;;;;;;;2.50;2.00;;;12.10;99.90;;;;;;5052452;28;20530;-70
2023/03/19 00:08:38;;;;;;;1.90;1.47;;;12.00;99.90;;;;;;5052012;28;20459;-70
2023/03/19 00:11:11;;;;;;;9.10;2.10;;;12.00;99.90;;;;;;5052623;28;20163;-71
2023/03/19 00:13:38;;;;;;;2.47;1.80;;;12.00;99.90;;;;;;5052329;28;20240;-71
2023/03/19 00:16:05;;;;;;;13.60;2.20;;;11.90;99.90;;;;;;5057976;28;20478;-71
2023/03/19 00:18:31;;;;;;;5.37;3.80;;;11.90;99.90;;;;;;5057101;28;20413;-71
2023/03/19 00:20:57;;;;;;;4.33;2.37;;;11.80;99.90;;;;;;5052251;28;20405;-71
2023/03/19 00:23:23;;;;;;;3.30;2.67;;;11.70;99.90;;;;;;5052195;28;20429;-70
2023/03/19 00:25:48;;;;;;;2.20;1.77;;;11.70;99.90;;;;;;5052066;28;20163;-71
2023/03/19 00:28:14;;;;;;;3.67;2.13;;;11.50;99.90;;;;;;5051966;28;20620;-71
2023/03/19 00:30:39;;;;;;;2.67;2.33;;;11.40;99.90;;;;;;5052195;28;20174;-71
2023/03/19 00:33:05;;;;;;;1.93;1.80;;;11.30;99.90;;;;;;5052176;28;20194;-71
2023/03/19 00:35:31;;;;;;;2.33;1.73;;;11.20;99.90;;;;;;5051342;28;20710;-70
2023/03/19 00:37:57;;;;;;;3.17;1.93;;;11.10;99.90;;;;;;5051704;28;20171;-71
2023/03/19 00:40:22;;;;;;;1.93;1.50;;;11.00;99.90;;;;;;5052130;28;20401;-70
2023/03/19 00:42:48;;;;;;;2.73;2.00;;;10.90;99.90;;;;;;5051970;28;20225;-71
2023/03/19 00:45:13;;;;;;;3.93;1.90;;;10.90;99.90;;;;;;5052145;28;20175;-70
2023/03/19 00:47:39;;;;;;;5.63;1.83;;;10.80;99.90;;;;;;5051702;28;20199;-71
2023/03/19 00:50:05;;;;;;;3.87;2.00;;;10.70;99.90;;;;;;5051920;28;20167;-69
2023/03/19 00:52:31;;;;;;;4.87;1.80;;;10.60;99.90;;;;;;5052081;28;20186;-70
2023/03/19 00:54:57;;;;;;;2.47;1.97;;;10.40;99.90;;;;;;5052040;28;20405;-70
2023/03/19 00:57:22;;;;;;;1.87;1.50;;;10.30;99.90;;;;;;5051772;28;20175;-71
2023/03/19 00:59:48;;;;;;;2.33;1.63;;;10.20;99.90;;;;;;5052093;28;20199;-70
2023/03/19 01:02:13;;;;;;;3.03;1.90;;;10.10;99.90;;;;;;5051862;28;20563;-70
2023/03/19 01:04:39;;;;;;;1.37;1.27;;;10.00;99.90;;;;;;5040633;28;20637;-70
2023/03/19 01:07:05;;;;;;;2.30;1.63;;;10.00;99.90;;;;;;5031783;28;20333;-71
2023/03/19 01:09:31;;;;;;;4.40;1.67;;;9.90;99.90;;;;;;5030649;28;20180;-70
2023/03/19 01:11:57;;;;;;;4.87;2.40;;;9.80;99.90;;;;;;5032001;28;20191;-71
2023/03/19 01:14:23;;;;;;;2.53;1.90;;;9.70;99.90;;;;;;5031867;28;20429;-71
2023/03/19 01:16:48;;;;;;;3.80;2.63;;;9.70;99.90;;;;;;5031915;28;20538;-71
2023/03/19 01:19:15;;;;;;;3.10;2.10;;;9.70;99.90;;;;;;5031667;28;20410;-71
2023/03/19 01:21:44;;;;;;;3.20;1.93;;;9.70;99.90;;;;;;5031826;28;20198;-71
2023/03/19 01:24:11;;;;;;;2.10;1.90;;;9.70;99.90;;;;;;5031968;28;20406;-71
2023/03/19 01:26:37;;;;;;;4.33;2.07;;;9.70;99.90;;;;;;5036163;28;20881;-71
2023/03/19 01:29:02;;;;;;;1.93;1.40;;;9.70;99.90;;;;;;5062619;28;20492;-71
2023/03/19 01:31:28;;;;;;;2.03;1.70;;;9.70;99.90;;;;;;5051746;28;20433;-72
2023/03/19 01:33:53;;;;;;;2.37;2.10;;;9.70;99.90;;;;;;5051675;28;20167;-71
2023/03/19 01:36:19;;;;;;;3.30;2.10;;;9.70;99.90;;;;;;5051767;28;20175;-71
2023/03/19 01:38:45;;;;;;;2.13;1.93;;;9.70;99.90;;;;;;5050262;28;20206;-70
2023/03/19 01:41:11;;;;;;;4.30;2.10;;;9.80;99.90;;;;;;5051436;28;20171;-71
2023/03/19 01:43:36;;;;;;;2.87;1.30;;;9.90;99.90;;;;;;5051601;28;20174;-70
2023/03/19 01:46:27;;;;;;;2.50;1.87;;;10.00;99.90;;;;;;5050980;28;20186;-71
2023/03/19 01:48:58;;;;;;;3.00;1.60;;;10.20;99.90;;;;;;5052253;28;20202;-70
2023/03/19 01:51:28;;;;;;;4.63;2.03;;;10.20;99.90;;;;;;5055267;28;20408;-71
2023/03/19 01:53:58;;;;;;;2.13;1.93;;;10.30;99.90;;;;;;5055135;28;20412;-70
2023/03/19 01:56:36;;;;;;;1.97;1.77;;;10.40;99.90;;;;;;5055210;28;20507;-70
2023/03/19 01:59:09;;;;;;;1.50;1.37;;;10.50;99.90;;;;;;5054888;28;20551;-70
2023/03/19 02:01:42;;;;;;;3.77;2.00;;;10.60;99.90;;;;;;5054919;28;20429;-70
2023/03/19 02:04:08;;;;;;;1.87;1.77;;;10.60;99.90;;;;;;5049465;28;20824;-70
2023/03/19 02:06:35;;;;;;;2.33;2.13;;;10.70;99.90;;;;;;5033360;28;20480;-70
2023/03/19 02:09:01;;;;;;;3.00;2.33;;;10.80;99.90;;;;;;5033391;28;20414;-70
2023/03/19 02:11:27;;;;;;;5.43;2.40;;;10.90;99.90;;;;;;5034941;28;20903;-71
2023/03/19 02:13:53;;;;;;;3.40;2.03;;;11.00;99.90;;;;;;5033480;28;20445;-69
2023/03/19 02:16:19;;;;;;;4.07;2.07;;;11.10;99.90;;;;;;5034750;28;20248;-71
2023/03/19 02:18:44;;;;;;;4.00;1.60;;;11.10;99.90;;;;;;5034308;28;20179;-71
2023/03/19 02:21:16;;;;;;;2.80;2.00;;;11.10;99.90;;;;;;5034543;28;20437;-70
2023/03/19 02:23:57;;;;;;;5.00;2.10;;;11.20;99.90;;;;;;5034644;28;20175;-71
2023/03/19 02:26:25;;;;;;;3.10;1.80;;;11.20;99.90;;;;;;5034594;28;20453;-72
2023/03/19 02:28:52;;;;;;;4.90;2.40;;;11.20;99.90;;;;;;5034177;28;20967;-71
2023/03/19 02:31:19;;;;;;;2.53;1.83;;;11.30;99.90;;;;;;5034205;28;20445;-71
2023/03/19 02:33:59;;;;;;;2.90;1.97;;;11.30;99.90;;;;;;5032913;28;20505;-70
2023/03/19 02:36:30;;;;;;;3.43;1.70;;;11.30;99.90;;;;;;5034452;28;20413;-71
2023/03/19 02:38:59;;;;;;;2.73;1.90;;;11.30;99.90;;;;;;5048757;28;20417;-71
2023/03/19 02:41:25;;;;;;;3.50;2.10;;;11.30;99.90;;;;;;5059871;28;20455;-71
2023/03/19 02:43:52;;;;;;;3.77;2.30;;;11.40;99.90;;;;;;5054167;28;20817;-71
2023/03/19 02:46:18;;;;;;;2.20;2.00;;;11.40;99.90;;;;;;5052731;28;20551;-70
2023/03/19 02:48:43;;;;;;;2.83;2.20;;;11.40;99.90;;;;;;5053744;28;20497;-72
2023/03/19 02:51:09;;;;;;;3.10;2.63;;;11.40;99.90;;;;;;5053987;28;20250;-71
2023/03/19 02:53:35;;;;;;;3.30;1.73;;;11.40;99.90;;;;;;5053923;28;20186;-71
2023/03/19 02:56:00;;;;;;;5.90;2.27;;;11.40;99.90;;;;;;5053815;28;20194;-71
2023/03/19 02:58:26;;;;;;;2.63;1.63;;;11.40;99.90;;;;;;5052753;28;20170;-70
2023/03/19 03:00:52;;;;;;;4.87;1.90;;;11.40;99.90;;;;;;5053841;28;20432;-71
2023/03/19 03:03:18;;;;;;;2.60;2.23;;;11.50;99.90;;;;;;5052390;28;20265;-71
2023/03/19 03:05:43;;;;;;;4.33;2.70;;;11.50;99.90;;;;;;5034982;28;20437;-71
2023/03/19 03:08:09;;;;;;;3.87;2.17;;;11.40;99.90;;;;;;5033316;28;20203;-71
2023/03/19 03:10:35;;;;;;;3.10;2.03;;;11.50;99.90;;;;;;5033633;28;20528;-70
2023/03/19 03:13:00;;;;;;;2.77;1.70;;;11.50;99.90;;;;;;5033409;28;20418;-70
2023/03/19 03:15:26;;;;;;;4.63;2.17;;;11.40;99.90;;;;;;5033654;28;20199;-71
2023/03/19 03:17:51;;;;;;;3.87;1.60;;;11.40;99.90;;;;;;5033202;28;20189;-71
2023/03/19 03:20:18;;;;;;;2.03;1.80;;;11.50;99.90;;;;;;5032183;28;20189;-71
2023/03/19 03:22:45;;;;;;;2.37;1.60;;;11.50;99.90;;;;;;5033402;28;20210;-71
2023/03/19 03:25:11;;;;;;;4.40;2.03;;;11.50;99.90;;;;;;5033406;28;20464;-71
2023/03/19 03:27:37;;;;;;;2.37;2.00;;;11.40;99.90;;;;;;5033040;28;20449;-71
2023/03/19 03:30:05;;;;;;;3.57;2.73;;;11.30;99.90;;;;;;5033347;28;20447;-70
2023/03/19 03:32:30;;;;;;;2.60;1.80;;;11.30;99.90;;;;;;5033079;28;21139;-70
2023/03/19 03:34:56;;;;;;;2.20;1.50;;;11.30;99.90;;;;;;5031968;28;20410;-71
2023/03/19 03:37:21;;;;;;;2.27;1.90;;;11.30;99.90;;;;;;5032902;28;20688;-70
2023/03/19 03:39:47;;;;;;;1.53;1.40;;;11.20;99.90;;;;;;5033097;28;20250;-70
2023/03/19 03:42:13;;;;;;;4.73;3.50;;;11.10;99.90;;;;;;5033009;28;20549;-72
2023/03/19 03:44:38;;;;;;;2.90;1.97;;;11.00;99.90;;;;;;5033145;28;20165;-71
2023/03/19 03:47:04;;;;;;;3.10;1.97;;;10.90;99.90;;;;;;5041334;28;20257;-71
2023/03/19 03:49:30;;;;;;;3.00;1.53;;;10.80;99.90;;;;;;5062124;28;20719;-70
2023/03/19 03:51:56;;;;;;;2.40;2.20;;;10.80;99.90;;;;;;5052905;28;20175;-71
2023/03/19 03:54:21;;;;;;;3.10;2.13;;;10.70;99.90;;;;;;5052837;28;20444;-70
2023/03/19 03:56:49;;;;;;;2.50;1.90;;;10.70;99.90;;;;;;5052707;28;20183;-70
2023/03/19 03:59:14;;;;;;;3.67;1.70;;;10.70;99.90;;;;;;5052597;28;20169;-72
2023/03/19 04:01:40;;;;;;;6.47;2.27;;;10.60;99.90;;;;;;5052769;28;20429;-70
2023/03/19 04:04:05;;;;;;;1.90;1.60;;;10.60;99.90;;;;;;5047513;28;20175;-71
2023/03/19 04:06:31;;;;;;;3.30;2.00;;;10.60;99.90;;;;;;5032673;28;20668;-71
2023/03/19 04:08:56;;;;;;;1.53;1.40;;;10.50;99.90;;;;;;5032168;28;20221;-70
2023/03/19 04:11:22;;;;;;;2.33;2.10;;;10.50;99.90;;;;;;5031868;28;20211;-70
2023/03/19 04:13:47;;;;;;;2.57;1.60;;;10.40;99.90;;;;;;5032364;28;20545;-71
2023/03/19 04:16:14;;;;;;;3.23;1.70;;;10.40;99.90;;;;;;5032474;28;20251;-71
2023/03/19 04:18:39;;;;;;;2.93;1.80;;;10.30;99.90;;;;;;5032264;28;20658;-72
2023/03/19 04:21:06;;;;;;;2.10;1.50;;;10.20;99.90;;;;;;5032404;28;20414;-70
2023/03/19 04:23:32;;;;;;;2.90;1.53;;;10.20;99.90;;;;;;5032442;28;20249;-71
2023/03/19 04:26:03;;;;;;;1.47;1.13;;;10.30;99.90;;;;;;5032216;28;20406;-71
2023/03/19 04:28:28;;;;;;;10.00;2.07;;;10.30;99.90;;;;;;5030798;28;20410;-72
2023/03/19 04:31:03;;;;;;;2.57;2.17;;;10.30;99.90;;;;;;5031146;28;20485;-72
2023/03/19 04:33:29;;;;;;;3.90;2.17;;;10.30;99.90;;;;;;5032307;28;20183;-70
2023/03/19 04:35:55;;;;;;;3.67;1.97;;;10.40;99.90;;;;;;5032290;28;20405;-71
2023/03/19 04:38:21;;;;;;;3.77;1.80;;;10.40;99.90;;;;;;5031970;28;20174;-71
2023/03/19 04:40:47;;;;;;;5.93;2.90;;;10.50;99.90;;;;;;5032210;28;20402;-71
2023/03/19 04:43:14;;;;;;;6.10;1.60;;;10.60;99.90;;;;;;5032108;28;20462;-71
2023/03/19 04:45:40;;;;;;;4.23;2.03;;;10.60;99.90;;;;;;5032302;28;20409;-71
2023/03/19 04:48:06;;;;;;;6.07;3.07;;;10.70;99.90;;;;;;5031748;28;21023;-71
2023/03/19 04:50:32;;;;;;;3.80;2.90;;;10.80;99.90;;;;;;5032062;28;20434;-71
2023/03/19 04:52:57;;;;;;;1.93;1.67;;;10.80;99.90;;;;;;5042255;28;20197;-71
2023/03/19 04:55:23;;;;;;;1.70;1.43;;;11.00;99.90;;;;;;5061653;28;20416;-69
2023/03/19 04:57:49;;;;;;;4.60;1.50;;;11.00;99.90;;;;;;5071680;28;20567;-71
2023/03/19 05:00:16;;;;;;;2.13;1.40;;;11.00;99.90;;;;;;5072057;28;20206;-71
2023/03/19 05:02:42;;;;;;;1.60;1.40;;;11.10;99.90;;;;;;5071827;28;20441;-71
2023/03/19 05:05:09;;;;;;;2.47;1.70;;;11.20;99.90;;;;;;5057925;28;20409;-70
2023/03/19 05:07:36;;;;;;;42.23;25.67;;;11.20;99.90;;;;;;5051168;28;20191;-70
2023/03/19 05:10:03;;;;;;;40.53;23.10;;;11.30;99.90;;;;;;5051629;28;20485;-70
2023/03/19 05:12:28;;;;;;;5.73;3.83;;;11.40;99.90;;;;;;5051597;28;20421;-71
2023/03/19 05:14:54;;;;;;;6.83;2.80;;;11.40;99.90;;;;;;5051602;28;20509;-71
2023/03/19 05:17:19;;;;;;;2.83;1.90;;;11.50;99.90;;;;;;5051370;28;20169;-71
2023/03/19 05:19:45;;;;;;;2.03;1.63;;;11.50;99.90;;;;;;5051750;28;20809;-70
2023/03/19 05:22:11;;;;;;;1.80;1.47;;;11.50;99.90;;;;;;5054263;28;20185;-70
2023/03/19 05:24:37;;;;;;;1.40;1.30;;;11.50;99.90;;;;;;5055436;28;20209;-70
2023/03/19 05:27:03;;;;;;;1.37;1.23;;;11.50;99.90;;;;;;5055091;28;20186;-70
2023/03/19 05:29:28;;;;;;;2.33;1.20;;;11.60;99.90;;;;;;5055501;28;20451;-70
2023/03/19 05:31:54;;;;;;;1.13;1.03;;;11.60;99.90;;;;;;5055196;28;20189;-69
2023/03/19 05:34:20;;;;;;;2.23;1.20;;;11.60;99.90;;;;;;5055370;28;20169;-69
2023/03/19 05:36:45;;;;;;;1.87;1.20;;;11.50;99.90;;;;;;5055100;28;20163;-70
2023/03/19 05:39:11;;;;;;;2.23;1.30;;;11.40;99.90;;;;;;5054968;28;20766;-69
2023/03/19 05:41:36;;;;;;;1.83;1.57;;;11.30;99.90;;;;;;5055211;28;20187;-70
2023/03/19 05:44:02;;;;;;;1.30;1.10;;;11.20;99.90;;;;;;5055164;28;20249;-70
2023/03/19 05:46:28;;;;;;;1.60;1.50;;;11.20;99.90;;;;;;5055017;28;20278;-69
2023/03/19 05:48:53;;;;;;;3.37;1.53;;;11.10;99.90;;;;;;5054591;28;20563;-69
2023/03/19 05:51:19;;;;;;;3.03;1.97;;;11.00;99.90;;;;;;5054886;28;20195;-70
2023/03/19 05:53:45;;;;;;;12.90;7.40;;;11.00;99.90;;;;;;5055146;28;20207;-71
2023/03/19 05:56:11;;;;;;;6.50;3.40;;;11.00;99.90;;;;;;5055005;28;20174;-71
2023/03/19 05:58:36;;;;;;;2.33;1.43;;;11.00;99.90;;;;;;5054807;28;20416;-72
2023/03/19 06:01:02;;;;;;;2.60;2.00;;;11.00;99.90;;;;;;5054873;28;20171;-71
2023/03/19 06:03:27;;;;;;;2.87;2.20;;;11.10;99.90;;;;;;5054727;28;20186;-69
2023/03/19 06:05:53;;;;;;;3.07;1.77;;;11.10;99.90;;;;;;5065263;28;20166;-70
2023/03/19 06:08:20;;;;;;;1.60;1.50;;;11.20;99.90;;;;;;5054654;28;20159;-70
2023/03/19 06:10:46;;;;;;;4.37;1.70;;;11.30;99.90;;;;;;5054641;28;20159;-71
2023/03/19 06:13:11;;;;;;;2.07;1.63;;;11.30;99.90;;;;;;5054508;28;20444;-71
2023/03/19 06:15:37;;;;;;;2.03;1.40;;;11.40;99.90;;;;;;5055094;28;20167;-70
2023/03/19 06:18:03;;;;;;;1.63;1.53;;;11.40;99.90;;;;;;5054319;28;20171;-71
2023/03/19 06:20:29;;;;;;;1.63;1.27;;;11.50;99.90;;;;;;5054572;28;20401;-71
2023/03/19 06:22:55;;;;;;;1.33;1.23;;;11.50;99.90;;;;;;5054306;28;20186;-70
2023/03/19 06:25:20;;;;;;;1.43;1.30;;;11.50;99.90;;;;;;5054407;28;20433;-71
2023/03/19 06:27:46;;;;;;;2.40;1.27;;;11.60;99.90;;;;;;5052804;28;20210;-70
2023/03/19 06:30:12;;;;;;;1.40;1.30;;;11.70;99.90;;;;;;5054180;28;20216;-70
2023/03/19 06:32:38;;;;;;;2.47;1.20;;;11.70;99.90;;;;;;5051846;28;20691;-71
2023/03/19 06:35:05;;;;;;;1.47;1.13;;;11.80;99.90;;;;;;5054289;28;20412;-70
2023/03/19 06:37:31;;;;;;;1.50;1.10;;;11.80;99.90;;;;;;5054376;28;20185;-71
2023/03/19 06:39:56;;;;;;;5.30;1.60;;;11.90;99.90;;;;;;5054495;28;20393;-72
2023/03/19 06:42:22;;;;;;;1.60;1.50;;;11.90;99.90;;;;;;5055013;28;20429;-72
2023/03/19 06:44:48;;;;;;;2.70;1.30;;;12.00;99.90;;;;;;5055715;28;20539;-71
2023/03/19 06:47:14;;;;;;;1.57;1.47;;;12.10;99.90;;;;;;5054680;28;20506;-70
2023/03/19 06:49:39;;;;;;;1.50;1.20;;;12.10;99.90;;;;;;5054211;28;20615;-71
2023/03/19 06:52:05;;;;;;;1.30;1.00;;;12.20;99.90;;;;;;5053855;28;20214;-71
2023/03/19 06:54:31;;;;;;;1.83;1.60;;;12.20;99.90;;;;;;5053964;28;20250;-71
2023/03/19 06:56:58;;;;;;;2.13;1.60;;;12.30;99.90;;;;;;5054011;28;20170;-71
2023/03/19 06:59:23;;;;;;;1.73;1.20;;;12.30;99.90;;;;;;5052552;28;20171;-70
2023/03/19 07:01:49;;;;;;;2.90;1.77;;;12.40;99.90;;;;;;5053550;28;20992;-70
2023/03/19 07:04:15;;;;;;;3.80;1.80;;;12.60;99.90;;;;;;5053468;28;20405;-70
2023/03/19 07:06:40;;;;;;;2.43;1.47;;;12.80;99.90;;;;;;5053663;28;20249;-70
2023/03/19 07:09:06;;;;;;;2.20;1.30;;;12.90;99.90;;;;;;5053422;28;20197;-69
2023/03/19 07:11:32;;;;;;;2.83;1.53;;;12.90;99.90;;;;;;5053510;28;20187;-70
2023/03/19 07:13:57;;;;;;;1.30;1.20;;;13.00;99.90;;;;;;5053372;28;20432;-71
2023/03/19 07:16:23;;;;;;;1.30;1.20;;;13.20;99.90;;;;;;5058958;28;20184;-70
2023/03/19 07:18:48;;;;;;;3.27;2.00;;;13.20;99.90;;;;;;5059592;28;20166;-69
2023/03/19 07:21:14;;;;;;;2.57;2.00;;;13.20;99.90;;;;;;5053282;28;20612;-71
2023/03/19 07:23:40;;;;;;;1.70;1.60;;;13.20;99.90;;;;;;5052131;28;20171;-72
2023/03/19 07:26:05;;;;;;;2.20;1.43;;;13.30;99.90;;;;;;5053153;28;20198;-71
2023/03/19 07:28:31;;;;;;;1.30;1.17;;;13.50;99.90;;;;;;5052709;28;20484;-71
2023/03/19 07:30:57;;;;;;;2.83;1.53;;;13.70;99.90;;;;;;5053157;28;20699;-71
2023/03/19 07:33:22;;;;;;;2.33;1.67;;;13.80;99.90;;;;;;5052744;28;20237;-70
2023/03/19 07:35:48;;;;;;;2.00;1.60;;;14.00;99.90;;;;;;5053049;28;20169;-69
2023/03/19 07:38:14;;;;;;;2.27;1.50;;;14.00;99.90;;;;;;5052652;28;20198;-70
2023/03/19 07:40:40;;;;;;;1.70;1.57;;;14.10;99.90;;;;;;5053013;28;20408;-70
2023/03/19 07:43:05;;;;;;;3.10;1.60;;;14.20;99.90;;;;;;5052922;28;20429;-70
2023/03/19 07:45:31;;;;;;;1.67;1.33;;;14.50;99.90;;;;;;5052652;28;20167;-70
2023/03/19 07:47:56;;;;;;;1.60;1.50;;;14.60;99.90;;;;;;5052401;28;20195;-70
2023/03/19 07:50:22;;;;;;;1.67;1.53;;;14.90;99.90;;;;;;5052687;28;20159;-70
2023/03/19 07:52:50;;;;;;;1.80;1.43;;;15.10;99.90;;;;;;5052641;28;20190;-72
2023/03/19 07:55:15;;;;;;;1.50;1.40;;;16.00;99.90;;;;;;5052661;28;20158;-71
2023/03/19 07:57:41;;;;;;;1.73;1.37;;;16.60;99.90;;;;;;5052278;28;20405;-70
2023/03/19 08:00:07;;;;;;;1.70;1.50;;;16.70;99.90;;;;;;5052501;28;20544;-71
2023/03/19 08:02:33;;;;;;;1.60;1.50;;;16.40;99.90;;;;;;5052436;28;20190;-70
2023/03/19 08:05:00;;;;;;;5.30;4.27;;;16.40;99.90;;;;;;5039962;28;20567;-70
2023/03/19 08:07:26;;;;;;;7.50;2.17;;;16.30;99.90;;;;;;5032152;28;20458;-72
2023/03/19 08:09:52;;;;;;;1.60;1.50;;;16.20;99.90;;;;;;5032691;28;20398;-71
2023/03/19 08:12:17;;;;;;;2.07;1.60;;;15.90;99.90;;;;;;5031112;28;20187;-70
2023/03/19 08:14:43;;;;;;;1.30;1.20;;;15.80;99.90;;;;;;5032357;28;20600;-69
2023/03/19 08:17:08;;;;;;;1.97;1.77;;;15.60;99.90;;;;;;5032109;28;20199;-70
2023/03/19 08:19:34;;;;;;;3.00;2.60;;;15.60;99.90;;;;;;5032288;28;20194;-70
2023/03/19 08:21:59;;;;;;;2.57;1.80;;;15.20;99.90;;;;;;5032213;28;20262;-70
2023/03/19 08:24:25;;;;;;;2.40;1.53;;;15.00;99.90;;;;;;5032297;28;20164;-70
2023/03/19 08:26:51;;;;;;;1.73;1.10;;;14.90;99.90;;;;;;5032326;28;20191;-69
2023/03/19 08:29:16;;;;;;;4.00;1.50;;;14.90;99.90;;;;;;5060452;28;20228;-70
2023/03/19 08:31:42;;;;;;;1.77;1.60;;;15.00;99.90;;;;;;5072032;28;20182;-70
2023/03/19 08:34:09;;;;;;;2.70;2.37;;;15.30;99.90;;;;;;5072081;28;20166;-70
2023/03/19 08:36:34;;;;;;;2.17;1.53;;;15.70;99.90;;;;;;5071957;28;20162;-70
2023/03/19 08:39:00;;;;;;;1.53;1.43;;;15.90;99.90;;;;;;5071939;28;20412;-71
2023/03/19 08:41:25;;;;;;;1.40;1.30;;;16.40;99.90;;;;;;5071893;28;20170;-70
2023/03/19 08:43:51;;;;;;;1.57;1.47;;;16.80;99.90;;;;;;5071933;28;20566;-70
2023/03/19 08:46:17;;;;;;;2.23;1.70;;;17.40;99.90;;;;;;5071929;28;20547;-71
2023/03/19 08:48:43;;;;;;;3.00;2.50;;;17.80;99.90;;;;;;5070437;28;20216;-70
2023/03/19 08:51:09;;;;;;;1.97;1.77;;;17.70;99.90;;;;;;5071406;28;20499;-70
2023/03/19 08:53:35;;;;;;;7.87;2.57;;;17.70;99.90;;;;;;5071773;28;20216;-70
2023/03/19 08:56:03;;;;;;;1.70;1.60;;;17.70;99.90;;;;;;5072448;28;20400;-70
2023/03/19 08:58:29;;;;;;;2.47;2.13;;;17.70;99.90;;;;;;5075638;28;20916;-71
2023/03/19 09:01:08;;;;;;;2.60;2.40;;;18.20;99.90;;;;;;5076148;28;20964;-71
2023/03/19 09:03:34;;;;;;;2.10;2.00;;;18.90;99.90;;;;;;5074894;28;20424;-71
2023/03/19 09:06:01;;;;;;;2.47;1.83;;;19.10;99.90;;;;;;5055690;28;20941;-71
2023/03/19 09:08:28;;;;;;;3.37;1.77;;;20.20;99.90;;;;;;5055549;28;20417;-70
2023/03/19 09:10:54;;;;;;;5.33;2.30;;;20.80;99.90;;;;;;5055712;28;20484;-70
2023/03/19 09:13:20;;;;;;;2.33;2.07;;;21.60;99.90;;;;;;5055400;28;20449;-70
2023/03/19 09:15:46;;;;;;;2.37;2.00;;;22.10;99.90;;;;;;5054426;28;20418;-69
2023/03/19 09:18:11;;;;;;;1.70;1.60;;;22.80;97.70;;;;;;5055361;28;20429;-70
2023/03/19 09:20:37;;;;;;;1.73;1.63;;;23.00;93.10;;;;;;5055549;28;20163;-70
2023/03/19 09:23:03;;;;;;;2.33;2.03;;;23.20;93.20;;;;;;5055497;28;20232;-70
2023/03/19 09:25:28;;;;;;;2.47;1.87;;;23.80;91.90;;;;;;5055485;28;20174;-70
2023/03/19 09:27:54;;;;;;;1.73;1.63;;;25.30;87.90;;;;;;5055022;28;20316;-70
2023/03/19 09:30:20;;;;;;;5.03;2.97;;;27.20;81.50;;;;;;5055452;28;20237;-70
2023/03/19 09:32:46;;;;;;;2.23;1.70;;;29.20;73.10;;;;;;5055333;28;20719;-70
2023/03/19 09:35:11;;;;;;;2.00;1.90;;;30.30;61.00;;;;;;5067350;28;20420;-70
2023/03/19 09:37:37;;;;;;;1.93;1.83;;;30.30;55.00;;;;;;5055178;28;20186;-72
2023/03/19 09:40:04;;;;;;;1.97;1.87;;;29.00;54.10;;;;;;5055172;28;20163;-71
2023/03/19 09:42:58;;;;;;;2.20;2.00;;;27.90;54.10;;;;;;5054999;28;20694;-70
2023/03/19 09:45:27;;;;;;;2.00;1.90;;;26.50;55.50;;;;;;5055167;28;20397;-69
2023/03/19 09:47:57;;;;;;;2.53;2.33;;;25.50;57.20;;;;;;5054769;28;20841;-69
2023/03/19 09:50:27;;;;;;;2.50;1.87;;;25.10;58.70;;;;;;5055101;28;20409;-71
2023/03/19 09:53:00;;;;;;;2.00;1.80;;;24.90;60.20;;;;;;5054890;28;20471;-71
2023/03/19 09:55:48;;;;;;;2.90;2.13;;;24.60;60.60;;;;;;5054863;28;20891;-72
2023/03/19 09:58:19;;;;;;;1.80;1.70;;;23.80;62.10;;;;;;5054364;28;20412;-70
2023/03/19 10:00:51;;;;;;;2.00;1.90;;;23.10;63.90;;;;;;5054955;28;20535;-69
2023/03/19 10:03:37;;;;;;;2.00;1.80;;;22.40;66.30;;;;;;5054690;28;20425;-69
2023/03/19 10:06:31;;;;;;;2.03;1.93;;;21.70;68.40;;;;;;5035039;28;21116;-69
2023/03/19 10:09:30;;;;;;;1.93;1.60;;;21.30;72.20;;;;;;5034423;28;20417;-69
2023/03/19 10:12:23;;;;;;;2.37;2.10;;;22.10;74.10;;;;;;5034608;28;20943;-69
2023/03/19 10:15:10;;;;;;;2.10;1.87;;;22.10;73.60;;;;;;5034615;28;20422;-70
2023/03/19 10:17:45;;;;;;;2.80;1.87;;;21.80;73.60;;;;;;5033110;28;20536;-70
2023/03/19 10:20:28;;;;;;;2.17;1.77;;;21.20;75.90;;;;;;5034594;28;20406;-71
2023/03/19 10:23:09;;;;;;;1.83;1.60;;;20.90;77.40;;;;;;5034528;28;20418;-70
2023/03/19 10:25:38;;;;;;;2.13;1.43;;;20.90;79.80;;;;;;5034483;28;20415;-69
2023/03/19 10:28:16;;;;;;;1.53;1.43;;;21.00;81.80;;;;;;5034044;28;20547;-70
2023/03/19 10:30:48;;;;;;;2.63;1.47;;;21.10;82.20;;;;;;5034434;28;21093;-70
2023/03/19 10:33:20;;;;;;;1.70;1.60;;;21.30;82.40;;;;;;5034286;28;20509;-70
2023/03/19 10:35:53;;;;;;;2.70;1.60;;;21.30;82.30;;;;;;5034310;28;20792;-70
2023/03/19 10:38:21;;;;;;;1.67;1.50;;;21.50;82.30;;;;;;5032401;28;20533;-69
2023/03/19 10:41:14;;;;;;;2.33;1.70;;;21.60;80.30;;;;;;5055608;28;20427;-69
2023/03/19 10:43:40;;;;;;;1.70;1.60;;;21.20;80.40;;;;;;5034122;28;20492;-70
2023/03/19 10:46:12;;;;;;;2.03;1.30;;;21.10;82.50;;;;;;5033986;28;20418;-70
2023/03/19 10:48:44;;;;;;;2.97;1.80;;;20.60;81.80;;;;;;5033834;28;20915;-69
2023/03/19 10:51:14;;;;;;;2.23;1.50;;;20.40;84.60;;;;;;5034023;28;20407;-69
2023/03/19 10:53:40;;;;;;;1.20;1.10;;;20.20;86.60;;;;;;5033880;28;20489;-70
2023/03/19 10:56:18;;;;;;;1.20;1.10;;;20.40;88.00;;;;;;5033935;28;20867;-72
2023/03/19 10:58:57;;;;;;;3.33;1.33;;;20.60;87.90;;;;;;5033652;28;20414;-72
2023/03/19 11:01:43;;;;;;;1.13;1.03;;;20.70;86.40;;;;;;5033859;28;20434;-72
2023/03/19 11:04:19;;;;;;;1.10;1.00;;;21.10;88.10;;;;;;5038079;28;20937;-72
2023/03/19 11:06:53;;;;;;;1.57;1.40;;;21.30;86.70;;;;;;5053536;28;20452;-72
2023/03/19 11:09:34;;;;;;;1.70;1.60;;;21.20;84.60;;;;;;5053502;28;20404;-72
2023/03/19 11:12:25;;;;;;;3.00;1.60;;;20.80;84.20;;;;;;5053468;28;20421;-72
2023/03/19 11:14:55;;;;;;;2.47;1.43;;;20.70;86.60;;;;;;5053381;28;20421;-72
2023/03/19 11:17:24;;;;;;;1.40;1.23;;;20.50;89.60;;;;;;5053155;28;20416;-72
2023/03/19 11:19:56;;;;;;;1.47;0.97;;;20.30;91.40;;;;;;5052792;28;20486;-72
2023/03/19 11:22:32;;;;;;;2.50;2.27;;;20.20;93.40;;;;;;5053231;28;20432;-72
2023/03/19 11:25:13;;;;;;;4.83;2.40;;;20.10;95.50;;;;;;5052362;28;20406;-72
2023/03/19 11:27:39;;;;;;;1.10;0.90;;;20.10;97.90;;;;;;5052081;28;20464;-72
2023/03/19 11:30:17;;;;;;;2.20;1.73;;;20.20;99.70;;;;;;5052840;28;20791;-72
2023/03/19 11:33:07;;;;;;;1.53;1.20;;;20.30;99.90;;;;;;5052615;28;20187;-72
2023/03/19 11:36:18;;;;;;;1.70;1.20;;;20.60;99.90;;;;;;5052777;28;20402;-72
2023/03/19 11:39:03;;;;;;;5.63;4.50;;;20.90;99.90;;;;;;5040104;28;20471;-72
2023/03/19 11:42:09;;;;;;;1.43;1.27;;;21.30;99.90;;;;;;5041473;28;20414;-72
2023/03/19 11:45:01;;;;;;;1.67;1.57;;;21.70;99.90;;;;;;5052891;28;20458;-72
2023/03/19 11:47:35;;;;;;;1.47;1.33;;;22.40;98.70;;;;;;5053816;28;20936;-73
2023/03/19 11:50:43;;;;;;;1.70;1.30;;;22.70;94.30;;;;;;5064381;28;20416;-73
2023/03/19 11:53:09;;;;;;;3.90;2.90;;;24.00;95.30;;;;;;5053136;28;20958;-72
2023/03/19 11:55:35;;;;;;;2.90;1.30;;;27.20;93.00;;;;;;5051823;28;20500;-73
2023/03/19 11:58:16;;;;;;;1.33;1.00;;;28.40;79.00;;;;;;5050978;28;20413;-73
2023/03/19 12:00:51;;;;;;;1.33;1.00;;;28.60;71.00;;;;;;5052742;28;20405;-73
2023/03/19 12:03:33;;;;;;;1.63;1.00;;;28.50;67.30;;;;;;5052736;28;20432;-73
2023/03/19 12:06:12;;;;;;;1.20;0.90;;;28.30;64.60;;;;;;5031508;28;20425;-73
2023/03/19 12:08:48;;;;;;;0.90;0.70;;;27.90;61.40;;;;;;5032344;28;20420;-73
2023/03/19 12:11:24;;;;;;;1.27;1.07;;;27.50;61.50;;;;;;5032739;28;20398;-73
2023/03/19 12:14:05;;;;;;;1.80;1.30;;;27.60;61.80;;;;;;5032614;28;20796;-73
2023/03/19 12:16:49;;;;;;;1.10;1.00;;;27.40;61.00;;;;;;5032377;28;20433;-72
2023/03/19 12:19:29;;;;;;;1.10;1.00;;;26.60;58.90;;;;;;5032851;28;20403;-73
2023/03/19 12:22:22;;;;;;;1.83;1.00;;;25.10;58.50;;;;;;5032699;28;20417;-73
2023/03/19 12:25:09;;;;;;;0.90;0.70;;;24.40;58.90;;;;;;5032532;28;20413;-72
2023/03/19 12:27:41;;;;;;;0.97;0.87;;;23.20;58.90;;;;;;5030687;28;20879;-72
2023/03/19 12:30:16;;;;;;;1.00;0.80;;;22.60;61.60;;;;;;5031906;28;20467;-72
2023/03/19 12:33:12;;;;;;;0.90;0.70;;;22.20;64.30;;;;;;5031826;28;20449;-73
2023/03/19 12:35:40;;;;;;;0.90;0.70;;;22.00;66.50;;;;;;5031891;28;20426;-72
2023/03/19 12:38:31;;;;;;;1.00;0.70;;;22.00;68.00;;;;;;5031585;28;20390;-72
2023/03/19 12:41:02;;;;;;;0.90;0.60;;;22.00;68.00;;;;;;5032297;28;20493;-72
2023/03/19 12:43:35;;;;;;;0.90;0.67;;;22.40;69.00;;;;;;5032081;28;20418;-72
2023/03/19 12:46:26;;;;;;;1.20;0.77;;;22.90;69.40;;;;;;5032036;28;20405;-73
2023/03/19 12:49:01;;;;;;;1.10;0.87;;;23.30;67.10;;;;;;5021408;28;20989;-72
2023/03/19 12:51:33;;;;;;;0.90;0.60;;;23.50;65.30;;;;;;5032145;28;20905;-72
2023/03/19 12:54:03;;;;;;;0.90;0.70;;;23.50;62.50;;;;;;5032189;28;20424;-72
2023/03/19 12:56:40;;;;;;;1.10;0.70;;;23.40;61.60;;;;;;5032152;28;20529;-72
2023/03/19 12:59:32;;;;;;;1.10;0.70;;;23.20;60.60;;;;;;5050601;28;20411;-73